Observations for CULDROSE NAVY, United Kingdom (EGDR)

EGDR 280450Z 32007KT 8000 -RA FEW003 SCT005 OVC070 13/13 Q0999 YLO1 
EGDR 280350Z 32008KT 7000 RA FEW003 BKN005 OVC070 13/13 Q0999 YLO1  
EGDR 280250Z 31006KT 8000 -RA FEW005 SCT012 BKN020 14/13 Q1000 GRN  
EGDR 280150Z 28004KT 7000 RA FEW008 SCT012 BKN025 14/13 Q1000 GRN   
EGDR 280050Z 26004KT 9999 FEW010 SCT020 OVC050 14/13 Q1001 WHT  
EGDR 272350Z 30004KT 9999 SCT012 SCT018 BKN050 14/13 Q1001 RERA GRN 
EGDR 272250Z 28004KT 9999 -RA FEW005 BKN018 OVC025 14/14 Q1002 WHT TEMPO 6000 -RADZ SCT005 YLO1 
EGDR 272150Z 29004KT 9999 -RA FEW006 BKN022 OVC030 15/14 Q1002 WHT TEMPO 6000 -RADZ SCT005 YLO1 
EGDR 272050Z 32004KT 9999 -RA FEW006 SCT014 BKN018 15/14 Q1002 GRN TEMPO 6000 -RADZ SCT005 YLO1 
EGDR 271950Z 30004KT 9999 SCT006 BKN007 BKN010 15/14 Q1003 YLO1 NOSIG   
EGDR 271850Z 31005KT 9999 SCT004 BKN007 OVC020 15/15 Q1003 RERA REDZ YLO2 NOSIG 
EGDR 271750Z 27006KT 1600 RADZ FEW000 SCT001 OVC003 15/15 Q1003 RED 
EGDR 271650Z 22006KT 0150 -DZ BKN000 OVC001 16/16 Q1004 RED 
EGDR 271550Z 21011KT 1500 VCFG FEW000 SCT001 BKN002 17/16 Q1004 RED NOSIG   
EGDR 271450Z 21010KT 5000 HZ FEW001 SCT002 BKN006 17/16 Q1004 AMB   
EGDR 271350Z 21009KT 4000 HZ FEW001 SCT002 OVC006 17/16 Q1005 AMB TEMPO 0800 FG SCT000 RED  
EGDR 271311Z 19008KT 3500 BR FEW001 SCT002 OVC005 17/16 Q1005 REDZ AMB TEMPO 0800 FG SCT000 RED 
EGDR 271311Z 19008KT 3500 BR FEW001 SCT002 OVC005 17/16 Q1005 REDZ AMB TEMPO 0800 FG SCT000 RED
EGDR 271250Z 19008KT 4000 BR FEW002 SCT003 OVC006 16/16 Q1005 REDZ YLO2 TEMPO 0800 FG SCT000 RED
EGDR 271150Z 18008KT 3500 -DZ FEW002 SCT004 BKN006 17/16 Q1006 YLO2 TEMPO SCT002 AMB
EGDR 271141Z 18010KT 4000 -RADZ FEW002 SCT004 BKN006 16/15 Q1006 YLO2 TEMPO SCT002 AMB  
EGDR 271141Z 18010KT 4000 -RADZ FEW002 SCT004 BKN006 16/15 Q1006 YLO2 TEMPO SCT002 AMB
EGDR 271050Z 19007KT 9999 FEW002 BKN008 OVC010 17/14 Q1006 GRN TEMPO 3500 RADZ SCT003 YLO2  
EGDR 270950Z 16006KT 9999 FEW006 BKN008 OVC010 17/14 Q1006 REDZ GRN TEMPO 3500 RADZ SCT003 YLO2 
EGDR 270850Z 19005KT 7000 -SHRA FEW006 SCT008 BKN010 16/14 Q1007 GRN TEMPO 3500 RADZ SCT003 YLO2
EGDR 270750Z 18004KT 9999 FEW005 BKN010 OVC025 15/13 Q1007 GRN TEMPO 4000 -RADZ SCT005 YLO1 
EGDR 270650Z 18003KT 9999 SCT012 SCT014 OVC030 15/13 Q1007 RESHRA GRN TEMPO 4000 -RADZ SCT005 YLO1  
EGDR 270550Z 16004KT 9999 FEW010 BKN014 14/12 Q1008 GRN TEMPO 4000 -RADZ SCT005 YLO1
EGDR 270450Z 13003KT 9999 FEW015 SCT050 BKN120 12/11 Q1008 BLU